Flight Track Log - Related Links

Times and Time Zones

All times are in EDT time to prevent confusion due to time zone crossing. See the SWA1223 flight status page for this flight to view local times or setup timezone preferences in your user account.

Time Position Orientation Groundspeed Altitude Reporting Facility
EDT Latitude Longitude Course Direction KTS MPH feet Rate Location/Type
Tue 03:14:22 PM 33.4333 -112.0333 239° Southwest 174 200 2,000  Level Phoenix TRACON
Tue 03:14:52 PM 33.4167 -112.0667 239° Southwest 187 215 3,200 2,706 Climbing Phoenix TRACON
Tue 03:16:04 PM 33.3833 -112.1333 239° Southwest 248 285 6,600 2,723 Climbing Phoenix TRACON
Tue 03:17:13 PM 33.3256 -112.0539 131° Southeast 287 330 9,600 2,382 Climbing Albuquerque Center
Tue 03:18:15 PM 33.3572 -111.9533 69° East 334 384 11,800 2,516 Climbing Albuquerque Center
Tue 03:19:17 PM 33.3867 -111.8369 73° East 365 420 14,800 2,855 Climbing Albuquerque Center
Tue 03:20:19 PM 33.4181 -111.7119 73° East 390 449 17,700 2,613 Climbing Albuquerque Center
Tue 03:21:21 PM 33.4506 -111.5831 73° East 405 466 20,200 2,516 Climbing Albuquerque Center
Tue 03:22:23 PM 33.4922 -111.4197 73° East 431 496 22,900 2,274 Climbing Albuquerque Center
Tue 03:23:25 PM 33.5139 -111.2719 80° East 454 522 24,900 1,839 Climbing Albuquerque Center
Tue 03:24:27 PM 33.5311 -111.1181 82° East 467 537 26,700 1,694 Climbing Albuquerque Center
Tue 03:25:29 PM 33.5486 -110.9586 82° East 485 558 28,400 1,597 Climbing Albuquerque Center
Tue 03:26:31 PM 33.5856 -110.8014 74° East 490 564 30,000 1,694 Climbing Albuquerque Center
Tue 03:27:33 PM 33.6458 -110.6153 69° East 498 573 31,900 1,694 Climbing Albuquerque Center
Tue 03:28:35 PM 33.6964 -110.4594 69° East 502 578 33,500 1,403 Climbing Albuquerque Center
Tue 03:29:37 PM 33.7433 -110.3125 69° East 504 580 34,800 1,258 Climbing Albuquerque Center
Tue 03:30:39 PM 33.7939 -110.1558 69° East 504 580 36,100 1,065 Climbing Albuquerque Center
Tue 03:31:41 PM 33.8533 -109.9672 69° East 507 583 37,000 435 Climbing Albuquerque Center
Tue 03:32:43 PM 33.9039 -109.8086 69° East 508 585 37,000  Level Albuquerque Center
Tue 03:33:45 PM 33.9533 -109.6525 69° East 505 581 37,000  Level Albuquerque Center
Tue 03:34:47 PM 33.9969 -109.4922 72° East 506 582 37,000  Level Albuquerque Center
Tue 03:35:49 PM 34.0397 -109.3314 72° East 506 582 37,000  Level Albuquerque Center
Tue 03:36:51 PM 34.0914 -109.1392 72° East 505 581 37,000  Level Albuquerque Center
Tue 03:37:53 PM 34.1353 -108.9789 72° East 505 581 37,000  Level Albuquerque Center
Tue 03:38:55 PM 34.1786 -108.8164 72° East 508 585 37,000  Level Albuquerque Center
Tue 03:39:57 PM 34.2214 -108.6522 72° East 513 590 37,000  Level Albuquerque Center
Tue 03:40:59 PM 34.2639 -108.4906 72° East 511 588 37,000  Level Albuquerque Center
Tue 03:42:01 PM 34.3111 -108.3139 72° East 510 587 37,000  Level Albuquerque Center
Tue 03:43:03 PM 34.3533 -108.1489 73° East 513 590 37,000  Level Albuquerque Center
Tue 03:44:06 PM 34.3956 -107.9839 73° East 513 590 37,000  Level Albuquerque Center
Tue 03:45:07 PM 34.4386 -107.8192 72° East 514 592 37,000  Level Albuquerque Center
Tue 03:46:09 PM 34.4892 -107.6200 73° East 516 594 37,000  Level Albuquerque Center
Tue 03:47:12 PM 34.5308 -107.4544 73° East 516 594 37,000  Level Albuquerque Center
Tue 03:48:13 PM 34.5719 -107.2878 73° East 515 593 37,000  Level Albuquerque Center
Tue 03:49:16 PM 34.6139 -107.1203 73° East 520 598 37,000  Level Albuquerque Center
Tue 03:50:18 PM 34.6547 -106.9536 73° East 522 601 37,000  Level Albuquerque Center
Tue 03:51:20 PM 34.7042 -106.7494 74° East 528 608 37,000  Level Albuquerque Center
Tue 03:52:22 PM 34.7467 -106.5786 73° East 533 613 37,000  Level Albuquerque Center
Tue 03:53:23 PM 34.7892 -106.4081 73° East 532 612 37,000  Level Albuquerque Center
Tue 03:54:25 PM 34.8292 -106.2375 74° East 529 609 37,000  Level Albuquerque Center
Tue 03:55:27 PM 34.8700 -106.0672 74° East 529 609 37,000  Level Albuquerque Center
Tue 03:56:29 PM 34.9175 -105.8678 74° East 524 603 37,000  Level Albuquerque Center
Tue 03:57:31 PM 34.9578 -105.6967 74° East 523 602 37,000  Level Albuquerque Center
Tue 03:58:33 PM 34.9983 -105.5261 74° East 519 597 37,000 484 Level Albuquerque Center
Tue 03:59:35 PM 35.0389 -105.3536 74° East 523 602 38,000 484 Climbing Albuquerque Center
Tue 04:00:37 PM 35.0794 -105.1781 74° East 530 610 38,000  Level Albuquerque Center
Tue 04:01:39 PM 35.1389 -104.9797 70° East 528 608 38,000 145 Level Albuquerque Center
Tue 04:02:41 PM 35.2017 -104.8597 57° Northeast 530 610 38,300 488 Climbing Albuquerque Center
Tue 04:03:42 PM 35.2981 -104.6700 58° Northeast 530 610 39,000 390 Climbing Albuquerque Center
Tue 04:04:44 PM 35.3736 -104.5153 59° Northeast 524 603 39,100 48 Climbing Albuquerque Center
Tue 04:05:46 PM 35.4500 -104.3603 59° Northeast 520 598 39,100  Level Albuquerque Center
Tue 04:06:48 PM 35.5269 -104.2064 58° Northeast 518 596 39,100  Level Albuquerque Center
Tue 04:07:49 PM 35.6022 -104.0528 59° Northeast 516 594 39,100  Level Albuquerque Center
Tue 04:08:51 PM 35.6775 -103.8992 59° Northeast 517 595 39,100  Level Albuquerque Center
Tue 04:09:53 PM 35.7519 -103.7450 59° Northeast 517 595 39,100  Level Albuquerque Center
Tue 04:10:55 PM 35.8272 -103.5914 59° Northeast 518 596 39,100  Level Albuquerque Center
Tue 04:11:57 PM 35.9008 -103.4372 59° Northeast 518 596 39,100  Level Albuquerque Center
Tue 04:12:59 PM 35.9750 -103.2825 59° Northeast 518 596 39,100  Level Albuquerque Center
Tue 04:14:00 PM 36.0489 -103.1253 60° Northeast 523 602 39,100  Level Albuquerque Center
Tue 04:15:02 PM 36.1364 -102.9425 59° Northeast 524 603 39,100  Level Albuquerque Center
Tue 04:16:04 PM 36.2128 -102.7806 60° Northeast 525 604 39,100  Level Albuquerque Center
Tue 04:17:06 PM 36.2864 -102.6244 60° Northeast 525 604 39,100  Level Albuquerque Center
Tue 04:18:08 PM 36.3597 -102.4692 60° Northeast 523 602 39,100  Level Albuquerque Center
Tue 04:19:10 PM 36.4339 -102.3108 60° Northeast 526 605 39,100  Level Albuquerque Center
Tue 04:20:12 PM 36.5058 -102.1536 60° Northeast 524 603 39,100  Level Albuquerque Center
Tue 04:21:14 PM 36.5786 -101.9950 60° Northeast 526 605 39,100  Level Albuquerque Center
Tue 04:22:15 PM 36.6544 -101.8317 60° Northeast 525 604 39,100  Level Albuquerque Center
Tue 04:23:17 PM 36.7342 -101.6544 61° Northeast 525 604 39,100  Level Albuquerque Center
Tue 04:24:19 PM 36.8036 -101.5044 60° Northeast 524 603 39,100  Level Albuquerque Center
Tue 04:25:21 PM 36.8839 -101.3297 60° Northeast 521 600 39,100  Level Albuquerque Center
Tue 04:27:25 PM 37.0294 -101.0039 61° Northeast 521 600 39,100  Level Kansas City Center
Tue 04:28:29 PM 37.0728 -100.8408 72° East 523 602 39,100  Level Kansas City Center
Tue 04:29:30 PM 37.1167 -100.6450 74° East 525 604 39,100  Level Kansas City Center
Tue 04:30:31 PM 37.1533 -100.4778 75° East 525 604 39,100  Level Kansas City Center
Tue 04:31:35 PM 37.1969 -100.2822 74° East 525 604 39,100  Level Kansas City Center
Tue 04:32:36 PM 37.2317 -100.1131 75° East 526 605 39,100  Level Kansas City Center
Tue 04:33:37 PM 37.2739 -99.9167 75° East 525 604 39,100  Level Kansas City Center
Tue 04:34:40 PM 37.3106 -99.7472 75° East 525 604 39,100  Level Kansas City Center
Tue 04:35:41 PM 37.3503 -99.5500 76° East 525 604 39,100 -48 Level Kansas City Center
Tue 04:36:44 PM 37.3869 -99.3903 74° East 530 610 39,000 -48 Descending Kansas City Center
Tue 04:37:47 PM 37.4236 -99.2133 75° East 527 606 39,000  Level Kansas City Center
Tue 04:38:48 PM 37.4567 -99.0372 77° East 522 601 39,000  Level Kansas City Center
Tue 04:39:49 PM 37.4994 -98.8267 76° East 520 598 39,000  Level Kansas City Center
Tue 04:40:53 PM 37.5344 -98.6503 76° East 519 597 39,000  Level Kansas City Center
Tue 04:41:54 PM 37.5697 -98.4753 76° East 517 595 39,000  Level Kansas City Center
Tue 04:42:55 PM 37.6056 -98.3000 75° East 519 597 39,000  Level Kansas City Center
Tue 04:43:59 PM 37.6431 -98.1042 76° East 519 597 39,000  Level Kansas City Center
Tue 04:45:00 PM 37.6781 -97.9250 76° East 521 600 39,000  Level Kansas City Center
Tue 04:46:01 PM 37.7131 -97.7453 76° East 524 603 39,000  Level Kansas City Center
Tue 04:47:05 PM 37.7464 -97.5644 77° East 525 604 39,000  Level Kansas City Center
Tue 04:48:05 PM 37.7831 -97.3808 76° East 529 609 39,000  Level Kansas City Center
Tue 04:49:08 PM 37.8164 -97.2008 77° East 531 611 39,000  Level Kansas City Center
Tue 04:50:09 PM 37.8550 -96.9844 77° East 528 608 39,000  Level Kansas City Center
Tue 04:51:13 PM 37.8875 -96.8036 77° East 529 609 39,000  Level Kansas City Center
Tue 04:52:14 PM 37.9175 -96.6231 78° East 527 606 39,000  Level Kansas City Center
Tue 04:53:15 PM 37.9475 -96.4425 78° East 526 605 39,000  Level Kansas City Center
Tue 04:54:19 PM 37.9783 -96.2625 78° East 523 602 39,000  Level Kansas City Center
Tue 04:56:23 PM 38.0406 -95.8803 78° East 518 596 39,000  Level Kansas City Center
Tue 04:57:25 PM 38.0753 -95.6806 77° East 520 598 39,000  Level Kansas City Center
Tue 04:58:25 PM 38.1056 -95.5100 77° East 520 598 39,000  Level Kansas City Center
Tue 04:59:29 PM 38.1347 -95.3389 78° East 521 600 39,000  Level Kansas City Center
Tue 05:00:30 PM 38.1689 -95.1386 78° East 522 601 39,000  Level Kansas City Center
Tue 05:01:34 PM 38.1969 -94.9694 78° East 516 594 39,000  Level Kansas City Center
Tue 05:02:35 PM 38.2283 -94.7686 79° East 518 596 39,000  Level Kansas City Center
Tue 05:03:36 PM 38.2556 -94.5964 79° East 519 597 39,000  Level Kansas City Center
Tue 05:04:37 PM 38.2911 -94.3978 77° East 518 596 39,000  Level Kansas City Center
Tue 05:05:41 PM 38.3314 -94.2300 73° East 517 595 39,000  Level Kansas City Center
Tue 05:06:43 PM 38.3733 -94.0453 74° East 516 594 39,000  Level Kansas City Center
Tue 05:07:44 PM 38.4125 -93.8692 74° East 515 593 39,000  Level Kansas City Center
Tue 05:08:47 PM 38.4522 -93.6919 74° East 516 594 39,000  Level Kansas City Center
Tue 05:09:48 PM 38.4992 -93.4800 74° East 515 593 39,000  Level Kansas City Center
Tue 05:10:52 PM 38.5383 -93.3014 74° East 517 595 39,000  Level Kansas City Center
Tue 05:11:54 PM 38.5756 -93.1242 75° East 515 593 39,000  Level Kansas City Center
Tue 05:12:54 PM 38.6153 -92.9444 74° East 517 595 39,000  Level Kansas City Center
Tue 05:13:55 PM 38.6533 -92.7669 75° East 516 594 39,000  Level Kansas City Center
Tue 05:14:59 PM 38.6903 -92.5903 75° East 512 589 39,000  Level Kansas City Center
Tue 05:16:01 PM 38.7272 -92.4133 75° East 511 588 39,000  Level Kansas City Center
Tue 05:17:02 PM 38.7631 -92.2364 75° East 509 586 39,000  Level Kansas City Center
Tue 05:18:03 PM 38.7992 -92.0606 75° East 508 585 39,000  Level Kansas City Center
Tue 05:19:07 PM 38.8419 -91.8508 75° East 504 580 39,000  Level Kansas City Center
Tue 05:20:08 PM 38.8747 -91.6881 75° East 503 579 39,000  Level Kansas City Center
Tue 05:21:10 PM 38.9089 -91.5158 76° East 500 575 39,000  Level Kansas City Center
Tue 05:22:11 PM 38.9444 -91.3425 75° East 501 577 39,000  Level Kansas City Center
Tue 05:23:14 PM 38.9783 -91.1694 76° East 500 575 39,000  Level Kansas City Center
Tue 05:24:16 PM 39.0128 -90.9950 76° East 501 577 39,000  Level Kansas City Center
Tue 05:25:20 PM 39.0539 -90.7864 76° East 501 577 39,000  Level Kansas City Center
Tue 05:26:19 PM 39.0878 -90.6106 76° East 502 578 39,000  Level Kansas City Center
Tue 05:27:22 PM 39.1214 -90.4339 76° East 504 580 39,000  Level Kansas City Center
Tue 05:28:24 PM 39.1547 -90.2578 76° East 503 579 39,000  Level Kansas City Center
Tue 05:29:26 PM 39.1878 -90.0814 76° East 503 579 39,000  Level Kansas City Center
Tue 05:30:26 PM 39.2211 -89.9047 76° East 505 581 39,000  Level Kansas City Center
Tue 05:31:28 PM 39.2536 -89.7269 77° East 506 582 39,000  Level Kansas City Center
Tue 05:32:32 PM 39.2844 -89.5506 77° East 505 581 39,000  Level Kansas City Center
Tue 05:33:32 PM 39.3228 -89.3389 77° East 504 580 39,000  Level Kansas City Center
Tue 05:34:36 PM 39.3542 -89.1636 77° East 504 580 39,000  Level Kansas City Center
Tue 05:35:37 PM 39.3847 -88.9889 77° East 500 575 39,000  Level Kansas City Center
Tue 05:36:40 PM 39.4147 -88.8189 77° East 498 573 39,000  Level Kansas City Center
Tue 05:37:40 PM 39.4447 -88.6444 77° East 498 573 39,000  Level Kansas City Center
Tue 05:38:45 PM 39.4794 -88.4483 77° East 493 567 39,000  Level Kansas City Center
Tue 05:39:45 PM 39.5100 -88.2725 77° East 496 571 39,000  Level Kansas City Center
Tue 05:40:45 PM 39.5406 -88.0947 77° East 499 574 39,000  Level Kansas City Center
Tue 05:41:48 PM 39.5692 -87.9181 78° East 499 574 39,000  Level Kansas City Center
Tue 05:42:26 PM 39.5875 -87.8011 78° East 494 568 39,000  Level Indianapolis Center
Tue 05:43:28 PM 39.6169 -87.6231 78° East 501 577 39,000  Level Indianapolis Center
Tue 05:44:30 PM 39.6464 -87.4475 78° East 495 570 39,000  Level Indianapolis Center
Tue 05:45:32 PM 39.6794 -87.2392 78° East 501 577 39,000  Level Indianapolis Center
Tue 05:46:34 PM 39.7075 -87.0614 78° East 499 574 39,000  Level Indianapolis Center
Tue 05:47:36 PM 39.7353 -86.8839 78° East 499 574 39,000  Level Indianapolis Center
Tue 05:48:38 PM 39.7633 -86.7042 78° East 501 577 39,000  Level Indianapolis Center
Tue 05:49:40 PM 39.7911 -86.5247 79° East 501 577 39,000  Level Indianapolis Center
Tue 05:50:42 PM 39.8164 -86.3583 79° East 502 578 39,000  Level Indianapolis Center
Tue 05:51:44 PM 39.8597 -86.1594 74° East 503 579 39,000  Level Indianapolis Center
Tue 05:52:46 PM 39.8972 -85.9822 75° East 502 578 39,000  Level Indianapolis Center
Tue 05:53:47 PM 39.9336 -85.8061 75° East 501 577 39,000  Level Indianapolis Center
Tue 05:54:49 PM 39.9700 -85.6292 75° East 502 578 39,000  Level Indianapolis Center
Tue 05:55:51 PM 40.0142 -85.4211 74° East 506 582 39,000  Level Indianapolis Center
Tue 05:56:53 PM 40.0500 -85.2433 75° East 505 581 39,000  Level Indianapolis Center
Tue 05:57:55 PM 40.0861 -85.0647 75° East 506 582 39,000  Level Indianapolis Center
Tue 05:58:57 PM 40.1208 -84.8897 75° East 503 579 39,000  Level Indianapolis Center
Tue 05:59:59 PM 40.1561 -84.7131 75° East 500 575 39,000  Level Indianapolis Center
Tue 06:01:01 PM 40.1903 -84.5361 76° East 497 572 39,000  Level Indianapolis Center
Tue 06:02:03 PM 40.2264 -84.3611 75° East 494 568 39,000  Level Indianapolis Center
Tue 06:03:05 PM 40.2603 -84.1850 76° East 495 570 39,000  Level Indianapolis Center
Tue 06:04:07 PM 40.3136 -83.9844 71° East 495 570 39,000  Level Indianapolis Center
Tue 06:05:09 PM 40.3861 -83.8300 58° Northeast 490 564 39,000  Level Indianapolis Center
Tue 06:06:11 PM 40.4561 -83.6767 59° Northeast 485 558 39,000  Level Indianapolis Center
Tue 06:07:13 PM 40.5261 -83.5228 59° Northeast 482 555 39,000  Level Indianapolis Center
Tue 06:08:15 PM 40.5964 -83.3678 59° Northeast 487 560 39,000  Level Indianapolis Center
Tue 06:08:50 PM 40.6356 -83.2836 58° Northeast 483 556 39,000  Level Cleveland Center
Tue 06:09:50 PM 40.7058 -83.1303 59° Northeast 483 556 39,000  Level Cleveland Center
Tue 06:10:50 PM 40.7736 -82.9767 60° Northeast 483 556 39,000  Level Cleveland Center
Tue 06:11:50 PM 40.8481 -82.8064 60° Northeast 478 550 39,000  Level Cleveland Center
Tue 06:12:51 PM 40.9178 -82.6494 60° Northeast 478 550 39,000  Level Cleveland Center
Tue 06:13:50 PM 40.9850 -82.4975 60° Northeast 479 551 39,000  Level Cleveland Center
Tue 06:14:50 PM 41.0522 -82.3425 60° Northeast 479 551 39,000  Level Cleveland Center
Tue 06:15:50 PM 41.1211 -82.1872 59° Northeast 479 551 39,000  Level Cleveland Center
Tue 06:16:50 PM 41.1900 -82.0289 60° Northeast 484 557 39,000  Level Cleveland Center
Tue 06:17:50 PM 41.2586 -81.8731 60° Northeast 484 557 39,000  Level Cleveland Center
Tue 06:18:50 PM 41.3161 -81.7386 60° Northeast 479 551 39,000  Level Cleveland Center
Tue 06:19:50 PM 41.3844 -81.5794 60° Northeast 474 545 39,000  Level Cleveland Center
Tue 06:20:50 PM 41.4567 -81.4058 61° Northeast 493 567 39,000  Level Cleveland Center
Tue 06:21:50 PM 41.5222 -81.2514 60° Northeast 486 559 39,000  Level Cleveland Center
Tue 06:22:50 PM 41.5900 -81.0939 60° Northeast 481 554 39,000  Level Cleveland Center
Tue 06:23:50 PM 41.6550 -80.9333 62° Northeast 481 554 39,000  Level Cleveland Center
Tue 06:24:50 PM 41.7158 -80.7917 60° Northeast 481 554 39,000  Level Cleveland Center
Tue 06:25:50 PM 41.7806 -80.6306 62° Northeast 481 554 39,000  Level Cleveland Center
Tue 06:26:50 PM 41.7869 -80.4439 87° East 475 547 39,000  Level Cleveland Center
Tue 06:27:50 PM 41.7678 -80.2575 98° East 490 564 39,000  Level Cleveland Center
Tue 06:28:50 PM 41.7483 -80.0683 98° East 510 587 39,000  Level Cleveland Center
Tue 06:29:50 PM 41.7286 -79.8792 98° East 510 587 39,000  Level Cleveland Center
Tue 06:30:50 PM 41.7064 -79.6792 98° East 505 581 39,000  Level Cleveland Center
Tue 06:31:50 PM 41.6881 -79.4931 97° East 505 581 39,000  Level Cleveland Center
Tue 06:32:50 PM 41.6694 -79.3100 98° East 505 581 39,000  Level Cleveland Center
Tue 06:33:51 PM 41.6486 -79.1269 99° East 500 575 39,000  Level Cleveland Center
Tue 06:34:50 PM 41.6272 -78.9469 99° East 500 575 39,000  Level Cleveland Center
Tue 06:35:50 PM 41.6058 -78.7669 99° East 500 575 39,000 -300 Level Cleveland Center
Tue 06:36:50 PM 41.5883 -78.5897 97° East 495 570 38,400 -800 Descending Cleveland Center
Tue 06:37:50 PM 41.5661 -78.4072 99° East 495 570 37,400 -1,550 Descending Cleveland Center
Tue 06:38:50 PM 41.5417 -78.2194 100° East 501 577 35,300 -2,532 Descending Cleveland Center
Tue 06:39:39 PM 41.5261 -78.0728 98° East 499 574 32,800 -2,345 Descending New York Center
Tue 06:40:40 PM 41.5003 -77.8817 100° East 504 580 31,000 -893 Descending New York Center
Tue 06:41:40 PM 41.4756 -77.6989 100° East 511 588 31,000  Level New York Center
Tue 06:42:41 PM 41.4464 -77.5161 102° East 505 581 31,000  Level New York Center
Tue 06:43:39 PM 41.4194 -77.3278 101° East 510 587 31,000  Level New York Center
Tue 06:44:39 PM 41.3919 -77.1425 101° East 516 594 31,000  Level New York Center
Tue 06:45:40 PM 41.3644 -76.9575 101° East 511 588 31,000 -1,059 Level New York Center
Tue 06:46:38 PM 41.3342 -76.7750 102° East 511 588 28,900 -2,370 Descending New York Center
Tue 06:47:39 PM 41.2908 -76.6000 108° East 511 588 26,300 -2,459 Descending New York Center
Tue 06:48:40 PM 41.2444 -76.4386 111° Southeast 487 560 23,900 -2,262 Descending New York Center
Tue 06:49:41 PM 41.2036 -76.2864 110° East 456 525 21,700 -2,132 Descending New York Center
Tue 06:50:41 PM 41.1664 -76.1483 110° East 425 489 19,600 -1,881 Descending New York Center
Tue 06:51:39 PM 41.1328 -76.0161 109° East 389 448 18,000 -807 Descending New York Center
Tue 06:52:40 PM 41.0950 -75.8756 110° East 389 448 18,000 -1,059 Level New York Center
Tue 06:53:38 PM 41.0625 -75.7575 110° East 389 448 15,900 -2,370 Descending New York Center
Tue 06:54:39 PM 41.0228 -75.6114 110° East 383 441 13,300 -1,438 Descending New York Center
Tue 06:55:39 PM 40.9883 -75.4881 110° East 370 426 13,000 -246 Descending New York Center
Tue 06:56:41 PM 40.9572 -75.3761 110° East 358 412 12,800 -1,160 Descending New York Center
Tue 06:57:38 PM 40.9206 -75.2472 111° Southeast 345 397 10,700 -1,475 Descending New York Center
Tue 06:58:39 PM 40.8892 -75.1381 111° Southeast 331 381 9,900 -1,091 Descending New York Center
Tue 06:59:39 PM 40.8594 -75.0375 111° Southeast 302 348 8,500 -1,377 Descending New York Center
Tue 07:00:41 PM 40.8358 -74.9456 109° East 292 336 7,100 -744 Descending New York Center
Tue 07:01:40 PM 40.8536 -74.8478 76° East 271 312 7,000 -50 Descending New York Center
Tue 07:02:40 PM 40.8842 -74.7453 68° East 266 306 7,000 -99 Level New York Center
Tue 07:03:41 PM 40.8664 -74.6619 106° East 250 288 6,800 -559 Descending New York Center
Tue 07:04:38 PM 40.8192 -74.5769 126° Southeast 259 298 5,900 -878 Descending New York Center
Tue 07:05:44 PM 40.7333 -74.5667 175° South 270 311 5,000 -409 Descending New York TRACON
Tue 07:06:50 PM 40.6500 -74.5500 171° South 268 308 5,000  Level New York TRACON
Tue 07:07:45 PM 40.6000 -74.5333 166° South 261 300 5,000  Level New York TRACON
Tue 07:08:45 PM 40.5333 -74.5167 169° South 232 267 5,000 -381 Level New York TRACON
Tue 07:09:51 PM 40.4667 -74.4833 159° South 234 269 4,200 -905 Descending New York TRACON
Tue 07:10:51 PM 40.4167 -74.4167 135° Southeast 230 265 3,100 -600 Descending New York TRACON
Tue 07:11:51 PM 40.4333 -74.3500 72° East 190 219 3,000 -50 Descending New York TRACON
Tue 07:12:51 PM 40.4667 -74.3000 49° Northeast 188 216 3,000  Level New York TRACON
Tue 07:13:51 PM 40.5167 -74.2833 14° North 180 207 3,000 -150 Level New York TRACON
Tue 07:14:51 PM 40.5667 -74.2500 27° Northeast 165 190 2,700 -600 Descending New York TRACON
Tue 07:15:51 PM 40.6000 -74.2167 37° Northeast 166 191 1,800 -900 Descending New York TRACON
Tue 07:16:51 PM 40.6333 -74.2000 21° North 138 159 900 -900 Descending New York TRACON
Tue 07:18:00 PM 40.6833 -74.1667 102° East  Level FlightAware Approximate
Tue 07:25:00 PM 40.6925 -74.1687 102° East  Level Estimated
Tue 07:26:00 PM 40.6925 -74.1687 102° East  Level Estimated
Tue 07:27:00 PM 40.6925 -74.1687 102° East  Level Estimated

Login

Don't have an account? Register now (free) for customized features, flight alerts, and more!